createdAt,value
2023-03-14T00:00:18.545Z,3.40
2023-03-14T00:02:46.363Z,2.70
2023-03-14T00:05:13.566Z,2.70
2023-03-14T00:07:41.092Z,2.88
2023-03-14T00:10:14.493Z,2.60
2023-03-14T00:12:43.211Z,2.60
2023-03-14T00:15:11.877Z,2.63
2023-03-14T00:17:39.644Z,2.85
2023-03-14T00:20:12.083Z,2.47
2023-03-14T00:22:40.213Z,2.25
2023-03-14T00:25:10.604Z,2.10
2023-03-14T00:27:38.171Z,2.10
2023-03-14T00:30:08.702Z,2.00
2023-03-14T00:32:36.002Z,2.00
2023-03-14T00:35:04.329Z,2.20
2023-03-14T00:37:31.592Z,1.92
2023-03-14T00:39:59.550Z,2.20
2023-03-14T00:42:26.938Z,2.15
2023-03-14T00:44:54.171Z,2.10
2023-03-14T00:47:21.306Z,1.95
2023-03-14T00:49:48.748Z,2.25
2023-03-14T00:52:16.032Z,2.63
2023-03-14T00:54:43.240Z,2.10
2023-03-14T00:57:10.395Z,1.88
2023-03-14T00:59:37.528Z,2.40
2023-03-14T01:02:04.738Z,2.10
2023-03-14T01:04:32.283Z,2.10
2023-03-14T01:06:59.560Z,2.20
2023-03-14T01:09:26.711Z,1.90
2023-03-14T01:11:53.878Z,2.08
2023-03-14T01:14:21.091Z,1.70
2023-03-14T01:16:48.202Z,1.83
2023-03-14T01:19:15.435Z,2.10
2023-03-14T01:21:42.705Z,2.20
2023-03-14T01:24:12.752Z,2.13
2023-03-14T01:26:40.000Z,1.88
2023-03-14T01:29:07.196Z,1.80
2023-03-14T01:31:34.412Z,1.95
2023-03-14T01:34:01.654Z,1.80
2023-03-14T01:36:30.484Z,2.45
2023-03-14T01:38:58.895Z,1.95
2023-03-14T01:41:27.200Z,2.00
2023-03-14T01:43:54.863Z,1.90
2023-03-14T01:46:29.106Z,1.90
2023-03-14T01:49:08.088Z,1.70
2023-03-14T01:51:46.167Z,2.10
2023-03-14T01:54:25.761Z,1.80
2023-03-14T01:57:05.795Z,1.70
2023-03-14T01:59:35.203Z,1.95
2023-03-14T02:02:03.764Z,1.83
2023-03-14T02:04:35.860Z,1.90
2023-03-14T02:07:31.536Z,1.50
2023-03-14T02:10:00.085Z,1.73
2023-03-14T02:12:28.909Z,1.60
2023-03-14T02:14:56.085Z,1.83
2023-03-14T02:17:25.177Z,1.80
2023-03-14T02:20:13.000Z,1.80
2023-03-14T02:22:45.393Z,1.80
2023-03-14T02:25:32.143Z,1.70
2023-03-14T02:28:00.801Z,1.70
2023-03-14T02:30:31.840Z,1.60
2023-03-14T02:33:11.150Z,1.73
2023-03-14T02:35:52.873Z,1.60
2023-03-14T02:39:12.786Z,1.55
2023-03-14T02:41:40.000Z,1.83
2023-03-14T02:44:07.235Z,1.90
2023-03-14T02:46:34.560Z,1.55
2023-03-14T02:49:11.701Z,1.60
2023-03-14T02:51:41.352Z,1.50
2023-03-14T02:54:09.086Z,1.45
2023-03-14T02:56:36.225Z,1.65
2023-03-14T02:59:05.412Z,1.70
2023-03-14T03:01:32.697Z,2.33
2023-03-14T03:03:59.963Z,1.40
2023-03-14T03:06:27.292Z,1.40
2023-03-14T03:08:54.506Z,1.40
2023-03-14T03:11:21.830Z,1.35
2023-03-14T03:13:48.958Z,1.55
2023-03-14T03:16:16.353Z,1.88
2023-03-14T03:18:43.608Z,1.70
2023-03-14T03:21:10.745Z,1.40
2023-03-14T03:23:37.939Z,1.60
2023-03-14T03:26:05.621Z,1.25
2023-03-14T03:28:32.782Z,1.27
2023-03-14T03:30:59.955Z,1.55
2023-03-14T03:33:27.257Z,1.40
2023-03-14T03:35:54.673Z,1.60
2023-03-14T03:38:21.966Z,1.40
2023-03-14T03:40:49.166Z,1.52
2023-03-14T03:43:16.359Z,1.45
2023-03-14T03:45:43.730Z,1.60
2023-03-14T03:48:11.021Z,1.33
2023-03-14T03:50:38.202Z,1.35
2023-03-14T03:53:05.358Z,1.42
2023-03-14T03:55:32.555Z,1.40
2023-03-14T03:57:59.737Z,1.65
2023-03-14T04:00:26.911Z,1.20
2023-03-14T04:02:54.243Z,1.52
2023-03-14T04:05:21.691Z,1.40
2023-03-14T04:07:48.903Z,1.35
2023-03-14T04:10:16.186Z,1.20
2023-03-14T04:12:43.472Z,1.40
2023-03-14T04:15:11.261Z,1.20
2023-03-14T04:17:38.413Z,1.15
2023-03-14T04:20:06.516Z,1.33
2023-03-14T04:22:33.679Z,1.60
2023-03-14T04:25:00.935Z,1.60
2023-03-14T04:27:28.087Z,1.38
2023-03-14T04:29:55.254Z,1.30
2023-03-14T04:32:22.504Z,1.40
2023-03-14T04:34:49.791Z,1.60
2023-03-14T04:37:17.038Z,1.25
2023-03-14T04:39:44.293Z,1.38
2023-03-14T04:42:11.440Z,1.50
2023-03-14T04:44:38.629Z,1.40
2023-03-14T04:47:05.814Z,1.70
2023-03-14T04:49:33.004Z,1.48
2023-03-14T04:52:00.211Z,1.60
2023-03-14T04:54:27.396Z,1.38
2023-03-14T04:56:54.650Z,1.27
2023-03-14T04:59:21.798Z,1.27
2023-03-14T05:01:50.902Z,1.27
2023-03-14T05:04:18.147Z,1.10
2023-03-14T05:06:45.347Z,0.95
2023-03-14T05:09:12.538Z,1.00
2023-03-14T05:11:39.671Z,0.95
2023-03-14T05:14:06.812Z,1.05
2023-03-14T05:16:34.359Z,4.32
2023-03-14T05:19:02.556Z,3.67
2023-03-14T05:21:31.996Z,0.90
2023-03-14T05:23:59.178Z,0.70
2023-03-14T05:26:26.334Z,1.10
2023-03-14T05:28:53.514Z,2.10
2023-03-14T05:31:20.799Z,1.80
2023-03-14T05:33:47.927Z,2.63
2023-03-14T05:36:15.135Z,3.35
2023-03-14T05:38:42.278Z,1.17
2023-03-14T05:41:09.680Z,0.70
2023-03-14T05:43:36.848Z,0.60
2023-03-14T05:46:04.338Z,0.50
2023-03-14T05:48:31.491Z,0.70
2023-03-14T05:51:00.269Z,0.60
2023-03-14T05:53:27.617Z,0.80
2023-03-14T05:55:57.886Z,1.00
2023-03-14T05:58:25.321Z,0.90
2023-03-14T06:00:52.497Z,1.15
2023-03-14T06:03:19.735Z,1.10
2023-03-14T06:05:46.931Z,1.13
2023-03-14T06:08:15.717Z,1.23
2023-03-14T06:10:43.993Z,0.90
2023-03-14T06:13:11.135Z,1.02
2023-03-14T06:15:38.319Z,1.10
2023-03-14T06:18:05.549Z,0.90
2023-03-14T06:20:34.034Z,1.10
2023-03-14T06:23:01.191Z,1.85
2023-03-14T06:25:28.385Z,1.73
2023-03-14T06:27:55.508Z,1.20
2023-03-14T06:30:22.683Z,1.10
2023-03-14T06:32:49.948Z,1.65
2023-03-14T06:35:17.427Z,1.50
2023-03-14T06:37:44.637Z,1.35
2023-03-14T06:40:18.729Z,1.30
2023-03-14T06:42:46.382Z,1.23
2023-03-14T06:45:14.447Z,1.25
2023-03-14T06:47:41.553Z,1.35
2023-03-14T06:50:10.704Z,1.30
2023-03-14T06:52:38.716Z,1.27
2023-03-14T06:55:06.742Z,1.25
2023-03-14T06:57:33.893Z,1.13
2023-03-14T07:00:01.031Z,1.02
2023-03-14T07:02:41.977Z,1.40
2023-03-14T07:05:11.370Z,2.28
2023-03-14T07:07:38.635Z,1.25
2023-03-14T07:10:06.517Z,1.70
2023-03-14T07:12:33.691Z,1.17
2023-03-14T07:15:11.960Z,1.52
2023-03-14T07:17:44.523Z,1.30
2023-03-14T07:20:11.983Z,1.52
2023-03-14T07:22:39.100Z,1.20
2023-03-14T07:25:06.890Z,0.95
2023-03-14T07:27:34.053Z,1.50
2023-03-14T07:30:01.194Z,1.23
2023-03-14T07:32:28.464Z,1.55
2023-03-14T07:34:55.578Z,1.30
2023-03-14T07:37:22.734Z,3.88
2023-03-14T07:39:50.001Z,3.13
2023-03-14T07:42:17.194Z,1.40
2023-03-14T07:44:44.343Z,0.88
2023-03-14T07:47:12.573Z,0.90
2023-03-14T07:49:39.821Z,0.95
2023-03-14T07:52:06.938Z,1.10
2023-03-14T07:54:34.098Z,1.02
2023-03-14T07:57:01.740Z,0.85
2023-03-14T07:59:29.012Z,0.90
2023-03-14T08:01:56.418Z,1.42
2023-03-14T08:04:23.570Z,0.70
2023-03-14T08:06:50.720Z,0.50
2023-03-14T08:09:17.849Z,1.58
2023-03-14T08:11:44.992Z,0.60
2023-03-14T08:14:12.289Z,0.77
2023-03-14T08:16:39.412Z,1.00
2023-03-14T08:19:06.568Z,1.17
2023-03-14T08:21:33.761Z,0.80
2023-03-14T08:24:01.637Z,0.80
2023-03-14T08:26:29.092Z,1.02
2023-03-14T08:28:56.210Z,0.82
2023-03-14T08:31:23.534Z,5.32
2023-03-14T08:33:53.016Z,2.80
2023-03-14T08:36:23.823Z,0.80
2023-03-14T08:38:51.278Z,1.10
2023-03-14T08:41:18.526Z,1.15
2023-03-14T08:43:46.016Z,1.10
2023-03-14T08:46:13.168Z,1.00
2023-03-14T08:48:40.330Z,1.33
2023-03-14T08:51:14.862Z,1.00
2023-03-14T08:53:42.841Z,1.00
2023-03-14T08:56:11.240Z,1.30
2023-03-14T08:58:39.017Z,1.10
2023-03-14T09:01:08.845Z,1.35
2023-03-14T09:03:36.406Z,1.33
2023-03-14T09:06:06.138Z,1.05
2023-03-14T09:08:34.391Z,2.30
2023-03-14T09:11:01.740Z,1.10
2023-03-14T09:13:29.151Z,1.60
2023-03-14T09:15:58.667Z,1.10
2023-03-14T09:18:25.901Z,1.25
2023-03-14T09:20:53.101Z,1.30
2023-03-14T09:23:20.273Z,1.30
2023-03-14T09:25:47.484Z,1.10
2023-03-14T09:28:14.596Z,1.50
2023-03-14T09:30:41.785Z,1.23
2023-03-14T09:33:09.163Z,1.40
2023-03-14T09:35:36.351Z,1.17
2023-03-14T09:38:03.580Z,1.15
2023-03-14T09:40:36.069Z,1.10
2023-03-14T09:43:04.176Z,1.02
2023-03-14T09:45:39.973Z,1.10
2023-03-14T09:48:16.766Z,1.00
2023-03-14T09:50:56.304Z,0.80
2023-03-14T09:53:42.308Z,0.90
2023-03-14T09:56:19.885Z,0.90
2023-03-14T09:58:56.618Z,0.90
2023-03-14T10:01:32.649Z,0.80
2023-03-14T10:04:14.419Z,1.10
2023-03-14T10:06:41.716Z,0.90
2023-03-14T10:09:26.101Z,1.00
2023-03-14T10:11:57.871Z,0.85
2023-03-14T10:14:38.856Z,0.98
2023-03-14T10:17:12.888Z,2.08
2023-03-14T10:20:00.621Z,1.10
2023-03-14T10:22:32.294Z,0.90
2023-03-14T10:25:26.874Z,1.00
2023-03-14T10:27:54.008Z,0.82
2023-03-14T10:30:46.521Z,1.77
2023-03-14T10:33:19.493Z,2.23
2023-03-14T10:40:52.446Z,1.63
2023-03-14T10:43:27.733Z,2.42
2023-03-14T10:46:03.699Z,2.83
2023-03-14T10:48:41.991Z,3.45
2023-03-14T10:51:18.166Z,1.10
2023-03-14T10:54:02.016Z,1.00
2023-03-14T10:56:37.308Z,0.88
2023-03-14T10:59:14.061Z,0.73
2023-03-14T11:02:31.631Z,0.82
2023-03-14T11:05:28.223Z,0.80
2023-03-14T11:08:03.664Z,0.85
2023-03-14T11:10:46.299Z,0.80
2023-03-14T11:13:32.967Z,0.90
2023-03-14T11:16:17.860Z,1.40
2023-03-14T11:19:00.970Z,2.00
2023-03-14T11:21:53.804Z,1.17
2023-03-14T11:24:50.901Z,1.10
2023-03-14T11:27:44.466Z,0.85
2023-03-14T11:30:35.140Z,0.70
2023-03-14T11:33:14.865Z,0.77
2023-03-14T11:35:57.219Z,0.70
2023-03-14T11:38:47.339Z,0.70
2023-03-14T11:41:46.374Z,0.60
2023-03-14T11:44:38.790Z,0.77
2023-03-14T11:47:20.617Z,0.77
2023-03-14T11:50:22.952Z,3.00
2023-03-14T11:53:07.189Z,0.90
2023-03-14T11:55:39.224Z,0.90
2023-03-14T11:58:28.269Z,1.00
2023-03-14T12:00:58.878Z,1.20
2023-03-14T12:03:53.997Z,0.73
2023-03-14T12:06:51.490Z,1.73
2023-03-14T12:09:23.337Z,0.80
2023-03-14T12:12:04.786Z,0.70
2023-03-14T12:14:36.704Z,0.60
2023-03-14T12:17:34.046Z,0.60
2023-03-14T12:20:20.513Z,0.43
2023-03-14T12:22:52.558Z,0.75
2023-03-14T12:25:28.291Z,0.50
2023-03-14T12:27:55.320Z,0.40
2023-03-14T12:30:37.626Z,0.50
2023-03-14T12:33:10.839Z,0.50
2023-03-14T12:35:50.553Z,0.55
2023-03-14T12:38:50.225Z,0.65
2023-03-14T12:41:41.574Z,0.60
2023-03-14T12:44:30.249Z,0.65
2023-03-14T12:47:33.607Z,0.40
2023-03-14T12:50:15.382Z,0.50
2023-03-14T12:53:35.227Z,0.50
2023-03-14T12:56:33.879Z,0.45
2023-03-14T12:59:30.583Z,0.60
2023-03-14T13:02:06.834Z,0.52
2023-03-14T13:04:51.671Z,0.60
2023-03-14T13:07:36.656Z,0.70
2023-03-14T13:10:11.321Z,0.77
2023-03-14T13:13:15.218Z,0.73
2023-03-14T13:15:46.292Z,0.60
2023-03-14T13:18:20.444Z,0.70
2023-03-14T13:20:55.410Z,0.80
2023-03-14T13:23:33.217Z,0.80
2023-03-14T13:26:02.351Z,0.80
2023-03-14T13:28:32.919Z,0.80
2023-03-14T13:31:05.850Z,0.40
2023-03-14T13:33:35.531Z,0.60
2023-03-14T13:36:06.580Z,0.80
2023-03-14T13:38:37.301Z,0.80
2023-03-14T13:41:09.138Z,1.00
2023-03-14T13:43:45.290Z,0.90
2023-03-14T13:46:21.475Z,1.75
2023-03-14T13:48:54.186Z,0.80
2023-03-14T13:51:23.689Z,1.48
2023-03-14T13:53:56.344Z,1.05
2023-03-14T13:56:27.733Z,1.40
2023-03-14T13:58:55.659Z,1.35
2023-03-14T14:01:36.720Z,1.40
2023-03-14T14:04:15.026Z,1.48
2023-03-14T14:06:59.152Z,1.08
2023-03-14T14:09:40.117Z,1.60
2023-03-14T14:12:19.047Z,1.60
2023-03-14T14:15:37.890Z,1.40
2023-03-14T14:18:09.363Z,1.50
2023-03-14T14:20:47.795Z,1.58
2023-03-14T14:23:26.115Z,2.33
2023-03-14T14:25:55.585Z,1.75
2023-03-14T14:28:36.682Z,1.98
2023-03-14T14:31:26.004Z,2.00
2023-03-14T14:34:02.994Z,1.70
2023-03-14T14:36:42.483Z,1.40
2023-03-14T14:39:28.216Z,1.70
2023-03-14T14:41:55.683Z,1.90
2023-03-14T14:44:33.299Z,2.13
2023-03-14T14:47:04.076Z,1.77
2023-03-14T14:49:34.143Z,2.35
2023-03-14T14:52:10.683Z,2.50
2023-03-14T14:54:55.522Z,2.55
2023-03-14T14:57:31.191Z,2.53
2023-03-14T15:00:08.096Z,3.38
2023-03-14T15:02:47.836Z,2.33
2023-03-14T15:05:21.928Z,3.17
2023-03-14T15:07:49.100Z,2.60
2023-03-14T15:10:21.320Z,3.05
2023-03-14T15:12:48.658Z,2.70
2023-03-14T15:15:18.492Z,2.70
2023-03-14T15:17:45.723Z,2.67
2023-03-14T15:20:16.367Z,2.90
2023-03-14T15:22:43.663Z,3.10
2023-03-14T15:25:31.494Z,2.63
2023-03-14T15:27:58.911Z,2.10
2023-03-14T15:30:26.071Z,2.88
2023-03-14T15:32:53.354Z,2.33
2023-03-14T15:35:20.560Z,2.60
2023-03-14T15:37:47.689Z,2.97
2023-03-14T15:40:16.148Z,2.63
2023-03-14T15:42:43.697Z,2.60
2023-03-14T15:45:11.114Z,2.50
2023-03-14T15:47:38.343Z,2.28
2023-03-14T15:50:06.043Z,2.83
2023-03-14T15:52:33.195Z,2.28
2023-03-14T15:55:01.342Z,2.53
2023-03-14T15:57:28.533Z,2.58
2023-03-14T15:59:55.869Z,2.50
2023-03-14T16:02:23.105Z,2.45
2023-03-14T16:04:50.279Z,2.95
2023-03-14T16:07:17.442Z,2.78
2023-03-14T16:09:44.574Z,2.42
2023-03-14T16:12:11.706Z,1.98
2023-03-14T16:14:43.511Z,2.72
2023-03-14T16:17:13.727Z,2.85
2023-03-14T16:19:40.880Z,2.17
2023-03-14T16:22:08.182Z,2.15
2023-03-14T16:24:35.281Z,2.03
2023-03-14T16:27:02.546Z,1.95
2023-03-14T16:29:31.100Z,2.47
2023-03-14T16:31:58.666Z,2.63
2023-03-14T16:34:25.863Z,2.15
2023-03-14T16:36:53.035Z,2.05
2023-03-14T16:39:20.481Z,2.42
2023-03-14T16:41:47.709Z,2.38
2023-03-14T16:44:15.112Z,2.28
2023-03-14T16:46:42.370Z,2.25
2023-03-14T16:49:10.455Z,2.53
2023-03-14T16:51:37.606Z,1.92
2023-03-14T16:54:04.825Z,2.03
2023-03-14T16:56:32.051Z,2.10
2023-03-14T16:58:59.488Z,2.00
2023-03-14T17:01:26.733Z,1.80
2023-03-14T17:03:54.236Z,2.22
2023-03-14T17:06:26.515Z,2.03
2023-03-14T17:08:57.187Z,1.50
2023-03-14T17:11:24.735Z,1.65
2023-03-14T17:13:52.068Z,1.83
2023-03-14T17:16:19.525Z,1.75
2023-03-14T17:18:46.880Z,1.95
2023-03-14T17:21:14.302Z,2.05
2023-03-14T17:23:41.743Z,2.00
2023-03-14T17:26:09.530Z,1.50
2023-03-14T17:28:36.705Z,1.83
2023-03-14T17:31:16.675Z,2.33
2023-03-14T17:33:45.313Z,1.83
2023-03-14T17:36:13.582Z,2.28
2023-03-14T17:38:41.641Z,2.50
2023-03-14T17:41:12.216Z,2.10
2023-03-14T17:43:41.951Z,2.03
2023-03-14T17:46:14.610Z,2.08
2023-03-14T17:48:44.696Z,1.50
2023-03-14T17:51:13.380Z,2.42
2023-03-14T17:53:40.983Z,3.35
2023-03-14T17:56:08.936Z,2.90
2023-03-14T17:58:37.811Z,1.73
2023-03-14T18:01:19.775Z,1.70
2023-03-14T18:03:47.247Z,2.15
2023-03-14T18:06:17.479Z,1.92
2023-03-14T18:08:44.944Z,1.80
2023-03-14T18:11:13.162Z,2.55
2023-03-14T18:13:41.506Z,2.10
2023-03-14T18:16:14.008Z,2.17
2023-03-14T18:18:45.423Z,2.20
2023-03-14T18:21:13.605Z,2.45
2023-03-14T18:23:41.404Z,2.22
2023-03-14T18:26:08.862Z,1.80
2023-03-14T18:28:36.054Z,1.90
2023-03-14T18:31:08.786Z,1.88
2023-03-14T18:33:38.296Z,2.40
2023-03-14T18:36:06.372Z,2.30
2023-03-14T18:38:33.838Z,2.88
2023-03-14T18:41:06.378Z,3.83
2023-03-14T18:43:34.987Z,2.13
2023-03-14T18:46:02.504Z,1.92
2023-03-14T18:48:30.293Z,1.95
2023-03-14T18:50:59.519Z,2.30
2023-03-14T18:53:32.356Z,2.15
2023-03-14T18:56:01.105Z,2.30
2023-03-14T18:58:29.042Z,2.15
2023-03-14T19:01:03.353Z,2.25
2023-03-14T19:03:34.476Z,2.97
2023-03-14T19:06:08.269Z,2.60
2023-03-14T19:08:38.122Z,3.55
2023-03-14T19:11:08.980Z,2.70
2023-03-14T19:13:36.225Z,2.45
2023-03-14T19:16:05.047Z,2.40
2023-03-14T19:18:32.566Z,2.53
2023-03-14T19:21:03.831Z,2.50
2023-03-14T19:23:37.043Z,2.30
2023-03-14T19:26:05.384Z,2.15
2023-03-14T19:28:33.303Z,2.15
2023-03-14T19:31:04.185Z,2.35
2023-03-14T19:33:32.288Z,2.80
2023-03-14T19:36:00.085Z,2.28
2023-03-14T19:38:27.299Z,2.20
2023-03-14T19:40:59.230Z,2.17
2023-03-14T19:43:27.404Z,2.10
2023-03-14T19:45:55.543Z,2.63
2023-03-14T19:48:30.451Z,1.90
2023-03-14T19:51:00.296Z,1.70
2023-03-14T19:53:27.477Z,2.85
2023-03-14T19:55:54.696Z,2.08
2023-03-14T19:58:23.568Z,2.17
2023-03-14T20:00:51.363Z,2.25
2023-03-14T20:03:18.671Z,1.85
2023-03-14T20:05:45.886Z,1.98
2023-03-14T20:08:13.322Z,1.95
2023-03-14T20:10:40.493Z,1.83
2023-03-14T20:13:19.191Z,2.05
2023-03-14T20:15:48.503Z,4.90
2023-03-14T20:18:15.801Z,2.15
2023-03-14T20:20:42.978Z,3.50
2023-03-14T20:23:10.408Z,3.25
2023-03-14T20:25:38.085Z,2.25
2023-03-14T20:28:05.555Z,2.17
2023-03-14T20:30:33.393Z,2.40
2023-03-14T20:33:04.355Z,2.97
2023-03-14T20:35:31.718Z,2.75
2023-03-14T20:37:58.918Z,2.67
2023-03-14T20:40:30.364Z,3.38
2023-03-14T20:42:57.511Z,1.85
2023-03-14T20:45:24.742Z,2.03
2023-03-14T20:47:51.944Z,2.08
2023-03-14T20:50:19.196Z,2.08
2023-03-14T20:52:46.407Z,2.20
2023-03-14T20:55:13.587Z,2.03
2023-03-14T20:57:40.954Z,2.47
2023-03-14T21:00:08.974Z,2.25
2023-03-14T21:02:36.580Z,2.35
2023-03-14T21:05:06.028Z,2.17
2023-03-14T21:07:41.300Z,2.50
2023-03-14T21:10:12.075Z,2.20
2023-03-14T21:12:39.562Z,1.88
2023-03-14T21:15:08.603Z,2.22
2023-03-14T21:17:36.613Z,4.15
2023-03-14T21:20:06.390Z,4.30
2023-03-14T21:22:33.580Z,5.68
2023-03-14T21:25:00.746Z,2.53
2023-03-14T21:27:28.258Z,1.95
2023-03-14T21:29:55.410Z,2.45
2023-03-14T21:32:23.065Z,2.20
2023-03-14T21:34:51.217Z,2.30
2023-03-14T21:37:18.454Z,2.20
2023-03-14T21:39:45.619Z,2.35
2023-03-14T21:42:13.075Z,2.00
2023-03-14T21:44:41.315Z,3.25
2023-03-14T21:47:09.724Z,6.13
2023-03-14T21:49:39.977Z,2.90
2023-03-14T21:52:10.934Z,2.38
2023-03-14T21:54:38.320Z,3.00
2023-03-14T21:57:07.369Z,2.60
2023-03-14T21:59:37.266Z,2.65
2023-03-14T22:02:08.293Z,2.58
2023-03-14T22:04:35.549Z,2.90
2023-03-14T22:07:05.105Z,1.90
2023-03-14T22:09:33.912Z,2.10
2023-03-14T22:12:01.366Z,2.30
2023-03-14T22:14:28.533Z,2.55
2023-03-14T22:16:56.118Z,2.58
2023-03-14T22:19:23.261Z,3.35
2023-03-14T22:21:50.425Z,3.42
2023-03-14T22:24:17.586Z,2.33
2023-03-14T22:26:45.168Z,2.25
2023-03-14T22:29:12.612Z,2.28
2023-03-14T22:31:39.740Z,1.98
2023-03-14T22:34:06.900Z,2.22
2023-03-14T22:36:34.122Z,2.40
2023-03-14T22:39:01.268Z,2.20
2023-03-14T22:41:28.446Z,1.85
2023-03-14T22:43:55.637Z,2.35
2023-03-14T22:46:22.789Z,2.13
2023-03-14T22:48:49.923Z,2.30
2023-03-14T22:51:17.202Z,2.35
2023-03-14T22:53:44.861Z,2.13
2023-03-14T22:56:12.831Z,1.90
2023-03-14T22:58:40.018Z,2.17
2023-03-14T23:01:07.414Z,2.35
2023-03-14T23:03:34.776Z,2.10
2023-03-14T23:06:03.987Z,3.33
2023-03-14T23:08:33.087Z,3.28
2023-03-14T23:11:05.958Z,3.20
2023-03-14T23:16:02.448Z,2.30
2023-03-14T23:18:29.677Z,2.55
2023-03-14T23:21:19.797Z,2.15
2023-03-14T23:23:48.003Z,2.47
2023-03-14T23:26:23.515Z,2.67
2023-03-14T23:28:54.270Z,2.38
2023-03-14T23:31:22.550Z,2.42
2023-03-14T23:33:50.585Z,2.40
2023-03-14T23:36:18.556Z,2.42
2023-03-14T23:38:46.774Z,2.40
2023-03-14T23:41:14.975Z,2.45
2023-03-14T23:43:45.150Z,2.35
2023-03-14T23:46:12.727Z,2.08
2023-03-14T23:48:40.207Z,2.45
2023-03-14T23:51:10.690Z,2.78
2023-03-14T23:53:37.894Z,2.50
2023-03-14T23:56:05.763Z,2.03
2023-03-14T23:58:35.761Z,3.35
